Time;durP1;ratioP1;P1;durP2;ratioP2;P2;SDS_P1;SDS_P2;PMS_P1;PMS_P2;Temp;Humidity;BMP_temperature;BMP_pressure;BME280_temperature;BME280_humidity;BME280_pressure;Samples;Min_cycle;Max_cycle;Signal;HPM_P1;HPM_P2
2021/01/13 00:02:24;;;;;;;1.80;1.67;;;4.50;99.90;;;;;;4958446;29;20182;-76
2021/01/13 00:04:50;;;;;;;0.47;0.47;;;4.40;99.90;;;;;;4958550;29;20277;-76
2021/01/13 00:07:16;;;;;;;6.13;1.75;;;4.10;99.90;;;;;;4958447;29;20198;-75
2021/01/13 00:09:42;;;;;;;2.20;2.00;;;4.10;99.90;;;;;;4958785;29;20194;-76
2021/01/13 00:12:08;;;;;;;0.43;0.43;;;4.10;99.90;;;;;;4958430;29;20178;-76
2021/01/13 00:14:33;;;;;;;0.20;0.20;;;4.10;99.90;;;;;;4958145;29;20577;-76
2021/01/13 00:16:59;;;;;;;0.40;0.40;;;4.10;99.90;;;;;;4958355;29;20167;-76
2021/01/13 00:19:25;;;;;;;0.82;0.82;;;4.10;99.90;;;;;;4958299;29;20167;-76
2021/01/13 00:21:52;;;;;;;0.30;0.30;;;4.40;99.90;;;;;;4958399;29;20186;-76
2021/01/13 00:24:18;;;;;;;0.90;0.90;;;4.40;99.90;;;;;;4940944;29;20174;-76
2021/01/13 00:26:44;;;;;;;0.60;0.60;;;4.40;99.90;;;;;;4940998;29;20184;-75
2021/01/13 00:29:11;;;;;;;0.28;0.28;;;4.50;99.90;;;;;;4958201;29;20249;-76
2021/01/13 00:31:37;;;;;;;0.40;0.40;;;4.40;99.90;;;;;;4958084;29;20213;-76
2021/01/13 00:34:06;;;;;;;5.93;2.30;;;4.30;99.90;;;;;;4940703;29;20171;-76
2021/01/13 00:36:31;;;;;;;0.60;0.60;;;4.30;99.90;;;;;;4958037;29;20190;-76
2021/01/13 00:38:57;;;;;;;0.88;0.88;;;4.10;99.90;;;;;;4940452;28;20178;-76
2021/01/13 00:41:23;;;;;;;2.60;2.03;;;4.20;99.90;;;;;;4940742;29;20642;-76
2021/01/13 00:43:54;;;;;;;0.35;0.35;;;4.40;99.90;;;;;;4957883;29;20524;-75
2021/01/13 00:46:21;;;;;;;0.68;0.68;;;4.40;99.90;;;;;;4957810;29;20186;-77
2021/01/13 00:48:47;;;;;;;1.23;1.13;;;4.60;99.90;;;;;;4957745;29;20648;-75
2021/01/13 00:51:12;;;;;;;1.67;1.58;;;4.50;99.90;;;;;;4957635;29;20309;-76
2021/01/13 00:53:39;;;;;;;4.22;2.00;;;4.40;99.90;;;;;;4957171;28;20289;-76
2021/01/13 00:56:05;;;;;;;0.65;0.65;;;4.30;99.90;;;;;;4957485;29;20206;-75
2021/01/13 00:58:31;;;;;;;1.10;1.00;;;4.20;99.90;;;;;;4957671;29;20171;-76
2021/01/13 01:00:57;;;;;;;0.95;0.95;;;4.00;99.90;;;;;;4957647;29;20313;-76
2021/01/13 01:03:23;;;;;;;1.15;1.15;;;3.90;99.90;;;;;;4957567;29;20194;-75
2021/01/13 01:05:49;;;;;;;1.15;1.05;;;3.90;99.90;;;;;;4957442;29;20289;-77
2021/01/13 01:08:15;;;;;;;0.30;0.30;;;3.90;99.90;;;;;;4957518;29;20584;-75
2021/01/13 01:10:42;;;;;;;3.38;0.82;;;4.10;99.90;;;;;;4957297;29;20220;-76
2021/01/13 01:13:07;;;;;;;0.38;0.38;;;4.30;99.90;;;;;;4940140;29;20249;-75
2021/01/13 01:15:34;;;;;;;1.27;1.27;;;4.50;99.90;;;;;;4957211;29;20231;-77
2021/01/13 01:18:00;;;;;;;0.40;0.40;;;4.60;99.90;;;;;;4940299;29;20530;-76
2021/01/13 01:20:26;;;;;;;0.40;0.40;;;4.50;99.90;;;;;;4940149;29;20174;-75
2021/01/13 01:22:59;;;;;;;1.90;1.80;;;4.40;99.90;;;;;;4957195;29;20707;-75
2021/01/13 01:25:26;;;;;;;0.70;0.70;;;4.30;99.90;;;;;;4957135;29;20560;-75
2021/01/13 01:27:54;;;;;;;0.25;0.25;;;4.30;99.90;;;;;;4957101;29;20505;-75
2021/01/13 01:30:23;;;;;;;1.58;1.48;;;4.20;99.90;;;;;;4957000;29;20249;-75
2021/01/13 01:32:49;;;;;;;0.50;0.50;;;4.30;99.90;;;;;;4957339;29;20214;-75
2021/01/13 01:35:15;;;;;;;1.80;1.40;;;4.20;99.90;;;;;;4956820;29;20554;-76
2021/01/13 01:37:42;;;;;;;0.38;0.38;;;4.20;99.90;;;;;;4939364;29;20185;-76
2021/01/13 01:40:13;;;;;;;0.57;0.57;;;4.20;99.90;;;;;;4972327;28;20233;-76
2021/01/13 01:42:50;;;;;;;1.48;1.48;;;4.30;99.90;;;;;;4976168;28;20201;-76
2021/01/13 01:45:18;;;;;;;1.10;1.10;;;4.20;99.90;;;;;;4976092;28;20548;-75
2021/01/13 01:48:07;;;;;;;0.32;0.32;;;4.30;99.90;;;;;;4976134;28;20174;-75
2021/01/13 01:50:35;;;;;;;0.32;0.32;;;4.20;99.90;;;;;;4974709;28;20222;-75
2021/01/13 01:53:13;;;;;;;4.30;1.65;;;4.20;99.90;;;;;;4975069;28;20517;-75
2021/01/13 01:56:16;;;;;;;0.20;0.20;;;4.10;99.90;;;;;;4975891;28;20193;-75
2021/01/13 01:58:47;;;;;;;0.30;0.30;;;4.10;99.90;;;;;;4975904;28;20264;-75
2021/01/13 02:01:14;;;;;;;0.35;0.35;;;4.10;99.90;;;;;;4975701;28;20162;-76
2021/01/13 02:03:48;;;;;;;0.45;0.45;;;3.90;99.90;;;;;;4975735;28;20154;-75
2021/01/13 02:06:27;;;;;;;0.73;0.73;;;3.70;99.90;;;;;;4974642;28;20190;-75
2021/01/13 02:08:52;;;;;;;0.22;0.22;;;3.90;99.90;;;;;;4974531;28;20179;-75
2021/01/13 02:11:19;;;;;;;0.75;0.75;;;3.90;99.90;;;;;;4975485;28;20213;-75
2021/01/13 02:13:47;;;;;;;0.40;0.40;;;3.90;99.90;;;;;;4975486;28;20197;-74
2021/01/13 02:16:17;;;;;;;0.28;0.28;;;4.00;99.90;;;;;;4975497;28;20251;-76
2021/01/13 02:18:46;;;;;;;0.30;0.30;;;4.00;99.90;;;;;;4975486;28;20695;-76
2021/01/13 02:21:17;;;;;;;0.30;0.30;;;4.10;99.90;;;;;;4975411;28;20255;-76
2021/01/13 02:24:15;;;;;;;3.85;2.85;;;4.20;99.90;;;;;;4975352;28;20229;-76
2021/01/13 02:27:18;;;;;;;0.40;0.40;;;4.20;99.90;;;;;;4975205;28;20219;-76
2021/01/13 02:29:51;;;;;;;0.20;0.20;;;4.00;99.90;;;;;;4975249;28;20205;-76
2021/01/13 02:32:27;;;;;;;8.95;2.75;;;3.90;99.90;;;;;;4973952;28;20270;-76
2021/01/13 02:35:06;;;;;;;1.15;1.15;;;4.10;99.90;;;;;;4989899;28;20685;-75
2021/01/13 02:37:55;;;;;;;0.45;0.45;;;4.10;99.90;;;;;;4973919;28;20174;-76
2021/01/13 02:40:22;;;;;;;1.20;1.20;;;3.90;99.90;;;;;;4963133;28;20226;-77
2021/01/13 02:43:11;;;;;;;1.23;1.20;;;3.90;99.90;;;;;;4955699;29;20214;-77
2021/01/13 02:45:43;;;;;;;0.68;0.68;;;3.80;99.90;;;;;;4955635;29;20191;-77
2021/01/13 02:48:19;;;;;;;0.70;0.70;;;4.10;99.90;;;;;;4954385;29;20182;-76
2021/01/13 02:50:51;;;;;;;0.40;0.40;;;4.00;99.90;;;;;;4955663;29;20216;-76
2021/01/13 02:53:16;;;;;;;4.03;3.05;;;3.90;99.90;;;;;;4955535;29;20521;-76
2021/01/13 02:55:47;;;;;;;0.68;0.68;;;4.10;99.90;;;;;;4955505;29;20190;-76
2021/01/13 02:58:37;;;;;;;0.47;0.47;;;4.00;99.90;;;;;;4955402;29;20171;-75
2021/01/13 03:01:06;;;;;;;0.57;0.57;;;4.10;99.90;;;;;;4946669;29;20190;-76
2021/01/13 03:03:33;;;;;;;1.02;0.95;;;4.00;99.90;;;;;;4938220;29;20174;-76
2021/01/13 03:06:05;;;;;;;0.47;0.47;;;3.90;99.90;;;;;;4955368;29;20604;-76
2021/01/13 03:08:44;;;;;;;0.20;0.20;;;4.10;99.90;;;;;;4955242;29;20622;-75
2021/01/13 03:11:15;;;;;;;0.28;0.28;;;4.00;99.90;;;;;;4955170;29;20572;-75
2021/01/13 03:13:43;;;;;;;0.40;0.40;;;3.90;99.90;;;;;;4955177;29;20163;-77
2021/01/13 03:16:11;;;;;;;0.40;0.40;;;3.90;99.90;;;;;;4955222;29;20658;-76
2021/01/13 03:18:46;;;;;;;0.65;0.65;;;3.90;99.90;;;;;;4954809;28;20170;-77
2021/01/13 03:21:20;;;;;;;1.17;1.08;;;3.90;99.90;;;;;;4955186;29;20221;-76
2021/01/13 03:24:11;;;;;;;0.40;0.40;;;3.80;99.90;;;;;;4955022;29;20216;-76
2021/01/13 03:26:41;;;;;;;9.68;0.95;;;3.80;99.90;;;;;;4955100;29;20686;-76
2021/01/13 03:29:09;;;;;;;0.25;0.25;;;3.80;99.90;;;;;;4937757;29;20178;-75
2021/01/13 03:31:50;;;;;;;3.50;1.38;;;3.80;99.90;;;;;;4954974;29;20230;-75
2021/01/13 03:34:33;;;;;;;0.50;0.50;;;3.70;99.90;;;;;;4954942;29;20177;-75
2021/01/13 03:37:08;;;;;;;0.35;0.35;;;3.70;99.90;;;;;;4954818;29;20558;-75
2021/01/13 03:39:39;;;;;;;0.63;0.63;;;3.80;99.90;;;;;;4954913;28;20311;-75
2021/01/13 03:42:09;;;;;;;0.22;0.22;;;3.80;99.90;;;;;;4954937;29;20293;-75
2021/01/13 03:44:37;;;;;;;0.50;0.50;;;3.70;99.90;;;;;;4954868;29;20277;-75
2021/01/13 03:47:24;;;;;;;0.43;0.43;;;3.70;99.90;;;;;;4954769;29;20177;-75
2021/01/13 03:50:20;;;;;;;0.30;0.30;;;3.90;99.90;;;;;;4954811;29;20198;-76
2021/01/13 03:53:01;;;;;;;0.22;0.22;;;4.00;99.90;;;;;;4954922;29;20171;-75
2021/01/13 03:55:32;;;;;;;0.73;0.73;;;4.10;99.90;;;;;;4954772;29;20374;-76
2021/01/13 03:57:57;;;;;;;0.47;0.47;;;4.20;99.90;;;;;;4954791;29;20241;-76
2021/01/13 04:00:40;;;;;;;0.35;0.35;;;4.20;99.90;;;;;;4954699;29;20253;-75
2021/01/13 04:03:25;;;;;;;0.43;0.43;;;4.40;99.90;;;;;;4954772;29;20638;-75
2021/01/13 04:06:09;;;;;;;0.55;0.50;;;4.30;99.90;;;;;;4954630;29;20210;-75
2021/01/13 04:08:39;;;;;;;0.43;0.43;;;4.30;99.90;;;;;;4954711;29;20170;-74
2021/01/13 04:11:12;;;;;;;0.43;0.43;;;4.30;99.90;;;;;;4954556;29;20218;-75
2021/01/13 04:13:43;;;;;;;5.57;1.27;;;4.30;99.90;;;;;;4954599;29;20646;-75
2021/01/13 04:16:11;;;;;;;0.50;0.50;;;4.40;99.90;;;;;;4937311;29;20202;-75
2021/01/13 04:18:38;;;;;;;0.20;0.20;;;4.30;99.90;;;;;;4937579;29;20570;-75
2021/01/13 04:21:05;;;;;;;0.55;0.55;;;4.20;99.90;;;;;;4954594;29;20633;-75
2021/01/13 04:23:31;;;;;;;0.50;0.50;;;4.20;99.90;;;;;;4954449;29;20163;-75
2021/01/13 04:25:58;;;;;;;0.20;0.20;;;4.30;99.90;;;;;;4954424;29;20206;-75
2021/01/13 04:28:24;;;;;;;0.47;0.47;;;4.40;99.90;;;;;;4954550;28;20218;-75
2021/01/13 04:30:50;;;;;;;0.20;0.20;;;4.40;99.90;;;;;;4957341;29;20296;-75
2021/01/13 04:33:16;;;;;;;0.50;0.50;;;4.40;99.90;;;;;;4958018;29;20254;-75
2021/01/13 04:35:42;;;;;;;0.25;0.25;;;4.40;99.90;;;;;;4957880;29;20662;-76
2021/01/13 04:38:10;;;;;;;0.35;0.35;;;4.50;99.90;;;;;;4958041;29;20182;-76
2021/01/13 04:40:40;;;;;;;1.05;1.05;;;4.50;99.90;;;;;;4957872;28;20295;-75
2021/01/13 04:43:09;;;;;;;0.73;0.50;;;4.50;99.90;;;;;;4940677;29;20177;-76
2021/01/13 04:45:47;;;;;;;0.25;0.25;;;4.60;99.90;;;;;;4957721;29;20187;-75
2021/01/13 04:48:17;;;;;;;0.50;0.50;;;4.50;99.90;;;;;;4957668;29;20197;-76
2021/01/13 04:50:48;;;;;;;0.95;0.95;;;4.40;99.90;;;;;;4957702;29;20296;-76
2021/01/13 04:53:20;;;;;;;0.60;0.60;;;4.60;99.90;;;;;;4957593;29;20622;-75
2021/01/13 04:55:54;;;;;;;0.63;0.63;;;4.50;99.90;;;;;;4957594;29;20226;-76
2021/01/13 04:58:50;;;;;;;0.65;0.65;;;4.50;99.90;;;;;;4957679;29;20163;-76
2021/01/13 05:01:18;;;;;;;2.47;0.85;;;4.50;99.90;;;;;;4957487;29;20187;-76
2021/01/13 05:04:00;;;;;;;0.77;0.77;;;4.30;99.90;;;;;;4957556;29;20159;-76
2021/01/13 05:06:31;;;;;;;0.55;0.55;;;4.10;99.90;;;;;;4957339;29;20274;-77
2021/01/13 05:09:08;;;;;;;0.28;0.28;;;4.10;99.90;;;;;;4957349;29;20657;-77
2021/01/13 05:11:48;;;;;;;0.20;0.20;;;4.10;99.90;;;;;;4939876;29;20214;-76
2021/01/13 05:14:14;;;;;;;0.45;0.45;;;3.90;99.90;;;;;;4957207;29;20182;-77
2021/01/13 05:17:03;;;;;;;0.43;0.43;;;3.80;99.90;;;;;;4957311;29;20218;-76
2021/01/13 05:19:31;;;;;;;0.40;0.40;;;3.90;99.90;;;;;;4957200;29;20169;-77
2021/01/13 05:21:59;;;;;;;0.95;0.95;;;4.00;99.90;;;;;;4939838;29;20190;-76
2021/01/13 05:24:28;;;;;;;0.80;0.80;;;3.90;99.90;;;;;;4957000;29;20167;-77
2021/01/13 05:27:03;;;;;;;0.43;0.43;;;4.00;99.90;;;;;;4939926;29;20182;-76
2021/01/13 05:29:38;;;;;;;4.80;2.85;;;4.20;99.90;;;;;;4956869;29;20181;-76
2021/01/13 05:32:06;;;;;;;0.22;0.22;;;4.20;99.90;;;;;;4957250;29;20517;-76
2021/01/13 05:34:36;;;;;;;0.60;0.60;;;4.20;99.90;;;;;;4957005;29;20191;-77
2021/01/13 05:37:41;;;;;;;1.17;1.10;;;4.20;99.90;;;;;;4939698;29;20170;-76
2021/01/13 05:40:07;;;;;;;0.68;0.68;;;4.10;99.90;;;;;;4948255;28;20250;-77
2021/01/13 05:42:33;;;;;;;1.45;1.35;;;4.30;99.90;;;;;;4956669;29;20941;-76
2021/01/13 05:45:00;;;;;;;45.25;1.85;;;4.40;99.90;;;;;;4956641;29;20277;-76
2021/01/13 05:47:53;;;;;;;0.45;0.45;;;4.40;99.90;;;;;;4956853;29;20520;-76
2021/01/13 05:50:20;;;;;;;0.43;0.43;;;4.50;99.90;;;;;;4956574;29;20666;-77
2021/01/13 05:52:54;;;;;;;3.60;1.42;;;4.50;99.90;;;;;;4956628;29;20170;-76
2021/01/13 05:55:20;;;;;;;0.38;0.38;;;4.40;99.90;;;;;;4956286;29;20206;-77
2021/01/13 05:58:12;;;;;;;0.63;0.63;;;4.50;99.90;;;;;;4956454;29;20199;-76
2021/01/13 06:00:38;;;;;;;0.60;0.60;;;4.40;99.90;;;;;;4953757;29;20187;-77
2021/01/13 06:03:04;;;;;;;0.70;0.70;;;4.30;99.90;;;;;;4956894;29;20182;-77
2021/01/13 06:05:32;;;;;;;0.60;0.60;;;4.30;99.90;;;;;;4956214;29;20186;-77
2021/01/13 06:07:59;;;;;;;0.80;0.63;;;4.30;99.90;;;;;;4938956;29;20226;-76
2021/01/13 06:10:34;;;;;;;0.52;0.52;;;4.40;99.90;;;;;;4955985;29;20214;-76
2021/01/13 06:13:01;;;;;;;0.20;0.20;;;4.40;99.90;;;;;;4939040;29;20170;-76
2021/01/13 06:15:28;;;;;;;0.70;0.70;;;4.50;99.90;;;;;;4955826;29;20186;-77
2021/01/13 06:17:56;;;;;;;0.43;0.43;;;4.30;99.90;;;;;;4956124;29;20174;-75
2021/01/13 06:20:30;;;;;;;0.20;0.20;;;4.30;99.90;;;;;;4955995;29;20163;-76
2021/01/13 06:22:58;;;;;;;5.88;3.05;;;4.50;99.90;;;;;;4955893;29;20158;-76
2021/01/13 06:25:29;;;;;;;0.70;0.60;;;4.60;99.90;;;;;;4955585;29;20218;-76
2021/01/13 06:27:57;;;;;;;0.82;0.82;;;4.50;99.90;;;;;;4955826;29;20175;-76
2021/01/13 06:31:01;;;;;;;0.30;0.30;;;4.60;99.90;;;;;;4955590;29;20293;-76
2021/01/13 06:33:34;;;;;;;0.75;0.75;;;4.50;99.90;;;;;;4929358;29;20194;-76
2021/01/13 06:36:05;;;;;;;0.50;0.50;;;4.60;99.90;;;;;;4955401;29;20210;-76
2021/01/13 06:38:42;;;;;;;0.28;0.28;;;4.60;99.90;;;;;;4955483;29;20174;-76
2021/01/13 06:41:08;;;;;;;0.40;0.40;;;4.70;99.90;;;;;;4955409;28;20717;-77
2021/01/13 06:43:34;;;;;;;1.15;0.90;;;4.70;99.90;;;;;;4955648;29;20746;-76
2021/01/13 06:46:00;;;;;;;0.82;0.82;;;4.70;99.90;;;;;;4955268;29;20186;-77
2021/01/13 06:48:27;;;;;;;0.38;0.38;;;4.70;99.90;;;;;;4954993;29;20221;-76
2021/01/13 06:50:57;;;;;;;0.30;0.30;;;4.50;99.90;;;;;;4955283;29;20580;-76
2021/01/13 06:53:32;;;;;;;0.30;0.30;;;4.40;99.90;;;;;;4954861;28;20166;-76
2021/01/13 06:56:09;;;;;;;7.45;1.20;;;4.50;99.90;;;;;;4953799;29;20201;-76
2021/01/13 06:58:39;;;;;;;0.95;0.95;;;4.50;99.90;;;;;;4937833;29;20174;-77
2021/01/13 07:01:06;;;;;;;0.32;0.32;;;4.50;99.90;;;;;;4954902;29;20266;-77
2021/01/13 07:03:32;;;;;;;0.65;0.65;;;4.50;99.90;;;;;;4937906;29;20247;-76
2021/01/13 07:06:11;;;;;;;0.88;0.88;;;4.50;99.90;;;;;;4955024;29;20183;-76
2021/01/13 07:08:37;;;;;;;0.85;0.85;;;4.60;99.90;;;;;;4954925;29;20158;-76
2021/01/13 07:11:05;;;;;;;0.30;0.30;;;4.60;99.90;;;;;;4954676;29;20284;-76
2021/01/13 07:13:34;;;;;;;0.32;0.32;;;4.60;99.90;;;;;;4954816;29;20163;-76
2021/01/13 07:16:01;;;;;;;5.00;2.22;;;4.60;99.90;;;;;;4954672;29;20237;-75
2021/01/13 07:18:31;;;;;;;0.30;0.30;;;4.50;99.90;;;;;;4954886;29;20225;-76
2021/01/13 07:21:05;;;;;;;2.05;1.27;;;4.50;99.90;;;;;;4954547;29;20703;-76
2021/01/13 07:23:31;;;;;;;1.05;1.02;;;4.60;99.90;;;;;;4954497;29;20225;-76
2021/01/13 07:25:58;;;;;;;0.40;0.40;;;4.60;99.90;;;;;;4954380;29;20190;-76
2021/01/13 07:28:25;;;;;;;0.65;0.65;;;4.50;99.90;;;;;;4954813;29;20171;-77
2021/01/13 07:30:53;;;;;;;0.80;0.80;;;4.60;99.90;;;;;;4954097;29;20208;-77
2021/01/13 07:33:19;;;;;;;0.30;0.30;;;4.80;99.90;;;;;;4954260;29;20167;-79
2021/01/13 07:35:47;;;;;;;0.70;0.70;;;4.90;99.90;;;;;;4936748;29;20293;-77
2021/01/13 07:38:16;;;;;;;0.50;0.30;;;4.80;99.90;;;;;;4954395;29;20200;-75
2021/01/13 07:40:57;;;;;;;2.60;1.00;;;4.80;99.90;;;;;;4954044;28;20281;-76
2021/01/13 07:43:47;;;;;;;1.45;1.05;;;4.50;99.90;;;;;;4954308;29;20166;-75
2021/01/13 07:46:24;;;;;;;0.73;0.73;;;4.60;99.90;;;;;;4954547;29;20187;-75
2021/01/13 07:49:21;;;;;;;8.30;3.03;;;4.90;99.90;;;;;;4954586;29;20170;-75
2021/01/13 07:51:52;;;;;;;0.55;0.55;;;4.90;99.90;;;;;;4954310;29;20293;-75
2021/01/13 07:54:25;;;;;;;0.40;0.40;;;4.90;99.90;;;;;;4954378;29;20694;-76
2021/01/13 07:56:55;;;;;;;0.65;0.65;;;4.90;99.90;;;;;;4937246;29;20288;-77
2021/01/13 07:59:46;;;;;;;0.30;0.30;;;4.80;99.90;;;;;;4937148;29;20174;-77
2021/01/13 08:02:32;;;;;;;0.82;0.82;;;4.90;99.90;;;;;;4954479;29;20178;-76
2021/01/13 08:05:25;;;;;;;12.35;1.30;;;4.80;99.90;;;;;;4956233;28;20194;-76
2021/01/13 08:08:09;;;;;;;1.70;1.27;;;4.70;99.90;;;;;;4958497;29;20178;-75
2021/01/13 08:10:39;;;;;;;0.30;0.30;;;4.70;99.90;;;;;;4940873;29;20692;-77
2021/01/13 08:13:39;;;;;;;0.80;0.80;;;4.80;99.90;;;;;;4958186;29;20575;-76
2021/01/13 08:16:34;;;;;;;1.48;1.38;;;4.90;99.90;;;;;;4940914;29;20187;-75
2021/01/13 08:19:22;;;;;;;0.98;0.98;;;4.80;99.90;;;;;;4950293;29;20198;-75
2021/01/13 08:22:00;;;;;;;0.85;0.85;;;4.90;99.90;;;;;;4957933;29;20237;-75
2021/01/13 08:24:30;;;;;;;0.82;0.82;;;5.10;99.90;;;;;;4957733;29;20174;-75
2021/01/13 08:27:00;;;;;;;31.30;2.33;;;5.10;99.90;;;;;;4957897;29;20164;-75
2021/01/13 08:29:35;;;;;;;0.68;0.68;;;5.20;99.90;;;;;;4940480;29;20175;-76
2021/01/13 08:32:12;;;;;;;0.40;0.40;;;5.10;99.90;;;;;;4958052;29;20178;-74
2021/01/13 08:35:04;;;;;;;0.85;0.80;;;5.10;99.90;;;;;;5090060;28;20612;-72
2021/01/13 08:37:34;;;;;;;1.08;1.05;;;5.30;99.90;;;;;;5088834;28;20169;-76
2021/01/13 08:40:24;;;;;;;1.55;1.45;;;5.20;99.90;;;;;;5090084;28;20161;-77
2021/01/13 08:43:05;;;;;;;2.10;1.30;;;5.00;99.90;;;;;;5085898;28;20421;-75
2021/01/13 08:45:39;;;;;;;0.57;0.57;;;4.90;99.90;;;;;;5088841;28;20235;-78
2021/01/13 08:48:07;;;;;;;1.02;1.02;;;5.00;99.90;;;;;;5089718;28;20172;-74
2021/01/13 08:50:33;;;;;;;0.50;0.50;;;5.10;99.90;;;;;;5089913;28;20154;-76
2021/01/13 08:53:02;;;;;;;0.40;0.40;;;5.30;99.90;;;;;;5087976;28;20247;-81
2021/01/13 08:55:28;;;;;;;1.88;0.90;;;5.20;99.90;;;;;;5087336;28;20182;-76
2021/01/13 08:57:56;;;;;;;0.40;0.40;;;5.00;99.90;;;;;;5089777;28;20173;-76
2021/01/13 09:00:24;;;;;;;3.88;1.25;;;5.00;99.90;;;;;;5088091;28;20529;-76
2021/01/13 09:03:18;;;;;;;1.10;1.00;;;5.20;99.90;;;;;;5066622;28;20239;-77
2021/01/13 09:05:44;;;;;;;1.63;1.08;;;5.20;99.90;;;;;;5073898;28;20293;-75
2021/01/13 09:08:11;;;;;;;0.47;0.47;;;5.20;99.90;;;;;;5077625;28;20600;-75
2021/01/13 09:10:47;;;;;;;0.93;0.90;;;5.40;99.90;;;;;;5080530;28;20163;-76
2021/01/13 09:13:35;;;;;;;0.95;0.95;;;5.30;99.90;;;;;;5082502;28;20531;-76
2021/01/13 09:16:23;;;;;;;2.42;2.25;;;5.40;99.90;;;;;;5076967;28;20220;-75
2021/01/13 09:19:02;;;;;;;1.35;0.80;;;5.40;99.90;;;;;;5087960;28;20174;-75
2021/01/13 09:21:32;;;;;;;0.20;0.20;;;5.50;99.90;;;;;;5089013;28;20170;-77
2021/01/13 09:23:59;;;;;;;0.75;0.75;;;5.60;99.90;;;;;;5087870;28;20166;-76
2021/01/13 09:26:31;;;;;;;0.60;0.60;;;5.60;99.90;;;;;;5087777;28;20202;-76
2021/01/13 09:28:59;;;;;;;0.40;0.40;;;5.50;99.90;;;;;;5087931;28;20212;-76
2021/01/13 09:31:24;;;;;;;1.05;1.00;;;5.60;99.90;;;;;;5088844;28;20651;-77
2021/01/13 09:33:50;;;;;;;2.08;1.33;;;5.70;99.90;;;;;;5088316;28;20222;-76
2021/01/13 09:36:16;;;;;;;0.43;0.43;;;5.70;99.90;;;;;;5089159;28;20182;-75
2021/01/13 09:38:44;;;;;;;3.08;0.93;;;5.80;99.90;;;;;;5087510;28;20200;-74
2021/01/13 09:41:22;;;;;;;0.32;0.32;;;5.70;99.90;;;;;;5088539;28;20518;-75
2021/01/13 09:43:48;;;;;;;2.17;1.35;;;5.80;99.90;;;;;;5086625;28;20533;-75
2021/01/13 09:46:23;;;;;;;0.88;0.88;;;5.90;99.90;;;;;;5075183;28;20262;-75
2021/01/13 09:48:59;;;;;;;0.40;0.40;;;6.10;99.90;;;;;;5074857;28;20243;-75
2021/01/13 09:51:25;;;;;;;0.82;0.82;;;5.90;99.90;;;;;;5075037;28;20170;-75
2021/01/13 09:53:56;;;;;;;0.90;0.90;;;6.00;99.90;;;;;;5058341;28;20753;-74
2021/01/13 09:56:22;;;;;;;0.75;0.75;;;5.80;99.90;;;;;;5055260;28;20642;-74
2021/01/13 09:58:49;;;;;;;0.40;0.40;;;5.80;99.90;;;;;;5053358;28;20170;-77
2021/01/13 10:01:29;;;;;;;0.30;0.30;;;5.70;99.90;;;;;;5055166;28;20550;-74
2021/01/13 10:03:57;;;;;;;2.25;2.03;;;5.70;99.90;;;;;;5055142;28;20190;-76
2021/01/13 10:06:31;;;;;;;0.30;0.30;;;5.90;99.90;;;;;;5053581;28;20222;-75
2021/01/13 10:08:59;;;;;;;0.60;0.60;;;5.80;99.90;;;;;;5054890;28;20568;-74
2021/01/13 10:11:26;;;;;;;0.32;0.32;;;5.80;99.90;;;;;;5054499;28;20167;-75
2021/01/13 10:14:02;;;;;;;0.65;0.65;;;5.90;99.90;;;;;;5064788;28;20206;-77
2021/01/13 10:16:29;;;;;;;0.38;0.38;;;5.90;99.90;;;;;;5074416;28;20661;-76
2021/01/13 10:19:00;;;;;;;0.90;0.90;;;5.80;99.90;;;;;;5074723;28;20173;-76
2021/01/13 10:21:37;;;;;;;0.40;0.40;;;5.90;99.90;;;;;;5074426;28;20281;-76
2021/01/13 10:24:05;;;;;;;2.08;1.77;;;5.80;99.90;;;;;;5073340;28;20668;-76
2021/01/13 10:26:38;;;;;;;3.22;1.75;;;5.70;99.90;;;;;;5074010;28;20210;-76
2021/01/13 10:29:05;;;;;;;0.60;0.60;;;5.70;99.90;;;;;;5072101;28;20195;-76
2021/01/13 10:31:32;;;;;;;1.00;1.00;;;5.80;99.90;;;;;;5074329;28;20174;-77
2021/01/13 10:33:58;;;;;;;1.25;1.25;;;5.70;99.90;;;;;;5073492;28;20214;-75
2021/01/13 10:36:30;;;;;;;2.03;1.45;;;5.80;99.90;;;;;;5074394;28;20194;-76
2021/01/13 10:39:00;;;;;;;1.95;1.85;;;5.90;99.90;;;;;;5073679;28;20194;-76
2021/01/13 10:41:37;;;;;;;2.50;1.42;;;5.90;99.90;;;;;;5073843;28;20162;-75
2021/01/13 10:44:09;;;;;;;0.88;0.65;;;6.10;99.90;;;;;;5073276;28;20174;-75
2021/01/13 10:46:44;;;;;;;10.60;1.38;;;6.00;99.90;;;;;;5072608;28;20182;-76
2021/01/13 10:49:27;;;;;;;1.70;1.23;;;6.00;99.90;;;;;;5073759;28;20170;-76
2021/01/13 10:52:04;;;;;;;0.20;0.20;;;6.10;99.90;;;;;;5073691;28;20198;-76
2021/01/13 10:54:32;;;;;;;0.68;0.68;;;5.90;99.90;;;;;;5073670;28;20235;-75
2021/01/13 10:57:06;;;;;;;5.38;0.68;;;5.90;99.90;;;;;;5071515;28;20621;-75
2021/01/13 10:59:34;;;;;;;0.70;0.70;;;6.00;99.90;;;;;;5072261;28;20192;-75
2021/01/13 11:02:10;;;;;;;10.75;0.85;;;6.00;99.90;;;;;;5073526;28;20481;-76
2021/01/13 11:04:41;;;;;;;0.88;0.88;;;6.00;99.90;;;;;;5074037;28;20208;-75
2021/01/13 11:07:11;;;;;;;0.60;0.60;;;5.90;99.90;;;;;;5073541;28;20622;-76
2021/01/13 11:09:42;;;;;;;0.30;0.30;;;5.90;99.90;;;;;;5073268;28;20166;-75
2021/01/13 11:12:09;;;;;;;0.40;0.40;;;6.00;99.90;;;;;;5072973;28;20505;-75
2021/01/13 11:14:49;;;;;;;0.50;0.50;;;6.00;99.90;;;;;;5071349;28;20259;-75
2021/01/13 11:17:25;;;;;;;1.10;1.08;;;6.10;99.90;;;;;;5071804;28;20203;-75
2021/01/13 11:19:57;;;;;;;1.88;1.15;;;5.90;99.90;;;;;;5072907;28;20155;-75
2021/01/13 11:22:48;;;;;;;2.30;0.77;;;5.80;99.90;;;;;;5072338;28;20547;-76
2021/01/13 11:25:37;;;;;;;0.52;0.52;;;5.80;99.90;;;;;;5071509;28;20190;-74
2021/01/13 11:28:13;;;;;;;0.95;0.95;;;6.00;99.90;;;;;;5062496;28;20225;-76
2021/01/13 11:30:44;;;;;;;1.23;0.90;;;6.00;99.90;;;;;;5052705;28;20174;-77
2021/01/13 11:33:12;;;;;;;0.63;0.63;;;6.00;99.90;;;;;;5052840;28;20230;-76
2021/01/13 11:35:46;;;;;;;0.30;0.30;;;6.00;99.90;;;;;;5049956;28;20240;-77
2021/01/13 11:38:15;;;;;;;0.20;0.20;;;6.10;99.90;;;;;;5050228;28;20163;-77
2021/01/13 11:41:05;;;;;;;0.85;0.85;;;6.00;99.90;;;;;;5051320;28;20228;-77
2021/01/13 11:43:52;;;;;;;0.60;0.60;;;6.20;99.90;;;;;;5052937;28;20244;-77
2021/01/13 11:46:28;;;;;;;1.55;1.10;;;6.40;99.90;;;;;;5052323;28;20684;-76
2021/01/13 11:49:02;;;;;;;0.77;0.77;;;6.50;99.90;;;;;;5052716;28;20163;-76
2021/01/13 11:51:32;;;;;;;1.10;1.10;;;6.50;99.90;;;;;;5053138;28;20174;-75
2021/01/13 11:53:59;;;;;;;1.50;0.90;;;6.40;99.90;;;;;;5052971;28;20198;-74
2021/01/13 11:56:30;;;;;;;0.70;0.70;;;6.50;99.90;;;;;;5052561;28;20191;-74
2021/01/13 11:58:56;;;;;;;0.60;0.60;;;6.50;99.90;;;;;;5052445;28;20164;-77
2021/01/13 12:01:24;;;;;;;6.07;1.40;;;6.50;99.90;;;;;;5052768;28;20187;-75
2021/01/13 12:04:16;;;;;;;0.50;0.50;;;6.50;99.90;;;;;;5053067;28;20175;-75
2021/01/13 12:06:58;;;;;;;0.60;0.60;;;6.50;99.90;;;;;;5053206;28;20179;-76
2021/01/13 12:09:23;;;;;;;0.30;0.30;;;6.40;99.90;;;;;;5052536;28;20626;-75
2021/01/13 12:11:49;;;;;;;0.70;0.70;;;6.40;99.90;;;;;;5052231;28;20206;-76
2021/01/13 12:14:15;;;;;;;1.88;1.77;;;6.50;99.90;;;;;;5052494;28;20256;-75
2021/01/13 12:16:41;;;;;;;0.88;0.88;;;6.70;99.90;;;;;;5052752;28;20512;-75
2021/01/13 12:19:06;;;;;;;0.50;0.50;;;6.80;99.90;;;;;;5052852;28;20523;-75
2021/01/13 12:21:33;;;;;;;0.28;0.28;;;6.80;99.90;;;;;;5051177;28;20182;-75
2021/01/13 12:24:13;;;;;;;0.90;0.90;;;6.90;99.90;;;;;;5052247;28;20258;-78
2021/01/13 12:26:39;;;;;;;1.02;1.02;;;6.90;99.90;;;;;;5051344;28;20166;-76
2021/01/13 12:29:08;;;;;;;9.07;1.10;;;7.00;99.90;;;;;;5052424;28;20181;-78
2021/01/13 12:31:45;;;;;;;0.98;0.98;;;7.00;99.90;;;;;;5052652;28;20623;-77
2021/01/13 12:34:13;;;;;;;1.27;1.23;;;6.80;99.90;;;;;;5052354;28;20233;-79
2021/01/13 12:36:42;;;;;;;0.47;0.47;;;6.80;99.90;;;;;;5051380;28;20163;-80
2021/01/13 12:39:08;;;;;;;0.50;0.50;;;6.90;99.90;;;;;;5051923;28;20624;-79
2021/01/13 12:41:36;;;;;;;2.33;0.75;;;7.10;99.90;;;;;;5052228;28;20183;-80
2021/01/13 12:44:09;;;;;;;1.00;1.00;;;7.00;99.90;;;;;;5052211;28;20187;-77
2021/01/13 12:46:49;;;;;;;0.85;0.85;;;7.10;99.90;;;;;;5052016;28;20307;-78
2021/01/13 12:49:14;;;;;;;1.00;0.98;;;7.30;99.90;;;;;;5052085;28;20170;-78
2021/01/13 12:51:40;;;;;;;0.57;0.57;;;7.30;99.90;;;;;;5050779;28;20210;-78
2021/01/13 12:54:05;;;;;;;1.27;1.23;;;7.30;99.90;;;;;;5052282;28;20251;-79
2021/01/13 12:56:34;;;;;;;1.48;1.38;;;7.50;99.90;;;;;;5052278;28;20191;-79
2021/01/13 12:59:01;;;;;;;2.63;1.35;;;7.50;99.90;;;;;;5051408;28;20171;-78
2021/01/13 13:01:28;;;;;;;5.40;1.77;;;7.70;99.90;;;;;;5052503;28;20601;-78
2021/01/13 13:03:57;;;;;;;1.00;1.00;;;7.70;99.90;;;;;;5052713;28;20179;-79
2021/01/13 13:06:24;;;;;;;0.93;0.93;;;7.80;99.90;;;;;;5052219;28;20270;-78
2021/01/13 13:08:50;;;;;;;1.13;1.13;;;7.90;99.90;;;;;;5052255;28;20229;-77
2021/01/13 13:11:16;;;;;;;1.83;1.10;;;7.80;99.90;;;;;;5050793;28;20190;-78
2021/01/13 13:13:41;;;;;;;2.15;1.95;;;7.90;99.90;;;;;;5052157;28;20658;-79
2021/01/13 13:16:10;;;;;;;1.50;1.40;;;7.70;99.90;;;;;;5051980;28;20277;-83
2021/01/13 13:18:39;;;;;;;3.80;2.00;;;7.70;99.90;;;;;;5052092;28;20168;-77
2021/01/13 13:21:12;;;;;;;21.27;1.20;;;7.70;99.90;;;;;;5054908;28;20182;-77
2021/01/13 13:23:39;;;;;;;0.77;0.77;;;7.50;99.90;;;;;;5055892;28;20576;-78
2021/01/13 13:26:05;;;;;;;1.60;1.50;;;7.40;99.90;;;;;;5055625;28;20854;-77